EFSI/SJY METAR and TAF weather

Enter ICAO airport designator
Station Type Date Time Source
EFSI METAR 2022/07/01 02:20 UTC NOAA

EFSI 010220Z AUTO 12005KT 9999 VCSH //////CB 14/11 Q1020


Station Type Date Time Source
EFSI Decoded METAR 2022/07/01 02:20 UTC NOAA

Seinajoki-Ilmajok, Finland (EFSI) 62-41-37N 022-49-55E
Jun 30, 2022 - 10:20 PM EDT / 2022.07.01 0220 UTC
Wind: from the ESE (120 degrees) at 6 MPH (5 KT):0
Visibility: greater than 7 mile(s):0
Weather: showers in the vicinity; Cumulonimbus clouds observed
Temperature: 57 F (14 C)
Dew Point: 51 F (11 C)
Relative Humidity: 82%
Pressure (altimeter): 30.12 in. Hg (1020 hPa)
ob: EFSI 010220Z AUTO 12005KT 9999 VCSH //////CB 14/11 Q1020
cycle: 2

Station Type Date Time Source
EFSI TAF 2012/03/06 09:42 UTC NOAA

TAF EFSI 060830Z 0609/0621 12003KT CAVOK

Example: see airport list